Flight Track Log - Related Links

Times and Time Zones

All times are in EDT time to prevent confusion due to time zone crossing. See the EJA808 flight status page for this flight to view local times or setup timezone preferences in your user account.

Time Position Orientation Groundspeed Altitude Reporting Facility
EDT Latitude Longitude Course Direction KTS MPH feet Rate Location/Type
Thu 10:04:41 AM 39.9667 -75.8500 90° East 206 237 1,900  Level Philadelphia TRACON
Thu 10:05:59 AM 39.9667 -75.7667 90° East 192 221 4,500 1,391 Climbing Philadelphia TRACON
Thu 10:06:59 AM 39.9586 -75.6917 98° East 191 220 5,100 1,261 Climbing New York Center
Thu 10:07:58 AM 39.9617 -75.6242 87° East 209 241 7,000 1,462 Climbing New York Center
Thu 10:08:58 AM 39.9625 -75.5511 89° East 204 235 8,000 700 Climbing New York Center
Thu 10:09:58 AM 39.9775 -75.4872 73° East 193 222 8,400 958 Climbing New York Center
Thu 10:10:57 AM 40.0128 -75.4406 45° Northeast 185 213 9,900 1,059 Climbing New York Center
Thu 10:11:57 AM 40.0644 -75.3981 32° Northeast 203 234 10,500 1,190 Climbing New York Center
Thu 10:12:58 AM 40.1197 -75.4208 343° North 203 234 12,300 1,240 Climbing New York Center
Thu 10:13:58 AM 40.1803 -75.4736 326° Northwest 240 276 13,000 694 Climbing New York Center
Thu 10:14:59 AM 40.2306 -75.5722 304° West 292 336 13,700 1,664 Climbing New York Center
Thu 10:15:57 AM 40.2894 -75.6581 312° West 317 365 16,300 2,288 Climbing New York Center
Thu 10:16:57 AM 40.3503 -75.7522 310° West 330 380 18,200 1,800 Climbing New York Center
Thu 10:17:57 AM 40.4092 -75.8381 312° West 342 394 19,900 1,900 Climbing New York Center
Thu 10:18:57 AM 40.4536 -75.9642 295° West 350 403 22,000 1,950 Climbing New York Center
Thu 10:19:57 AM 40.4728 -76.0939 281° West 360 414 23,800 1,750 Climbing New York Center
Thu 10:20:57 AM 40.4958 -76.2267 283° West 373 429 25,500 1,623 Climbing New York Center
Thu 10:21:59 AM 40.5153 -76.3511 282° West 385 443 27,100 1,700 Climbing New York Center
Thu 10:22:57 AM 40.5369 -76.5058 280° West 385 443 28,900 1,678 Climbing New York Center
Thu 10:23:57 AM 40.5558 -76.6275 282° West 385 443 30,400 1,785 Climbing New York Center
Thu 10:24:58 AM 40.5775 -76.7797 281° West 390 449 32,500 1,918 Climbing New York Center
Thu 10:25:59 AM 40.5975 -76.9156 281° West 390 449 34,300 1,636 Climbing New York Center
Thu 10:26:59 AM 40.6142 -77.0372 280° West 385 443 35,800 1,780 Climbing New York Center
Thu 10:27:57 AM 40.6353 -77.1869 281° West 373 429 37,800 1,729 Climbing New York Center
Thu 10:28:57 AM 40.6497 -77.3033 279° West 373 429 39,200 1,100 Climbing New York Center
Thu 10:29:57 AM 40.6697 -77.4311 282° West 373 429 40,000 282 Climbing New York Center
Thu 10:31:47 AM 40.7061 -77.7017 280° West 408 470 40,000  Level Cleveland Center
Thu 10:32:48 AM 40.7244 -77.8514 279° West 414 476 40,000  Level Cleveland Center
Thu 10:33:47 AM 40.7469 -78.0042 281° West 420 483 40,000  Level Cleveland Center
Thu 10:34:47 AM 40.7647 -78.1514 279° West 420 483 40,000  Level Cleveland Center
Thu 10:35:47 AM 40.7844 -78.3014 280° West 425 489 40,000  Level Cleveland Center
Thu 10:36:48 AM 40.8039 -78.4464 280° West 420 483 40,000  Level Cleveland Center
Thu 10:37:47 AM 40.8192 -78.5911 278° West 413 475 40,000  Level Cleveland Center
Thu 10:38:48 AM 40.8403 -78.7361 281° West 407 468 40,000  Level Cleveland Center
Thu 10:39:47 AM 40.8614 -78.8808 281° West 407 468 40,000  Level Cleveland Center
Thu 10:40:47 AM 40.8800 -79.0286 280° West 407 468 40,000  Level Cleveland Center
Thu 10:41:47 AM 40.8986 -79.1794 279° West 413 475 40,000  Level Cleveland Center
Thu 10:42:47 AM 40.9150 -79.3275 278° West 413 475 40,000  Level Cleveland Center
Thu 10:43:47 AM 40.9356 -79.4947 279° West 413 475 40,000  Level Cleveland Center
Thu 10:44:47 AM 40.9533 -79.6400 279° West 413 475 40,000  Level Cleveland Center
Thu 10:45:47 AM 40.9711 -79.7828 279° West 408 470 40,000  Level Cleveland Center
Thu 10:46:47 AM 40.9867 -79.9283 278° West 408 470 40,000  Level Cleveland Center
Thu 10:47:48 AM 41.0042 -80.0769 279° West 408 470 40,000  Level Cleveland Center
Thu 10:48:47 AM 41.0233 -80.2253 280° West 408 470 40,000  Level Cleveland Center
Thu 10:49:47 AM 41.0383 -80.3683 278° West 408 470 40,000  Level Cleveland Center
Thu 10:50:48 AM 41.0553 -80.5169 279° West 408 470 40,000  Level Cleveland Center
Thu 10:51:47 AM 41.0697 -80.6631 278° West 408 470 40,000  Level Cleveland Center
Thu 10:52:47 AM 41.0864 -80.8089 279° West 408 470 40,000  Level Cleveland Center
Thu 10:53:48 AM 41.1025 -80.9550 278° West 408 470 40,000  Level Cleveland Center
Thu 10:54:47 AM 41.1125 -81.0875 276° West 414 476 40,000  Level Cleveland Center
Thu 10:55:47 AM 41.1283 -81.2392 278° West 414 476 40,000  Level Cleveland Center
Thu 10:56:48 AM 41.1442 -81.3828 278° West 403 464 40,000  Level Cleveland Center
Thu 10:57:47 AM 41.1639 -81.5456 279° West 408 470 40,000  Level Cleveland Center
Thu 10:58:47 AM 41.1769 -81.6922 277° West 408 470 40,000  Level Cleveland Center
Thu 10:59:47 AM 41.1922 -81.8386 278° West 408 470 40,000  Level Cleveland Center
Thu 11:00:47 AM 41.2072 -81.9853 278° West 408 470 40,000  Level Cleveland Center
Thu 11:01:47 AM 41.2158 -82.1206 275° West 408 470 40,000  Level Cleveland Center
Thu 11:02:47 AM 41.2306 -82.2644 278° West 407 468 40,000  Level Cleveland Center
Thu 11:03:47 AM 41.2450 -82.4114 277° West 407 468 40,000  Level Cleveland Center
Thu 11:04:47 AM 41.2592 -82.5525 278° West 401 461 40,000  Level Cleveland Center
Thu 11:05:47 AM 41.2692 -82.6994 275° West 401 461 40,000  Level Cleveland Center
Thu 11:06:47 AM 41.2847 -82.8600 277° West 401 461 40,000  Level Cleveland Center
Thu 11:07:47 AM 41.2983 -83.0125 277° West 411 473 40,000  Level Cleveland Center
Thu 11:08:47 AM 41.3097 -83.1594 276° West 406 467 40,000  Level Cleveland Center
Thu 11:09:47 AM 41.3214 -83.2900 277° West 406 467 40,000  Level Cleveland Center
Thu 11:10:47 AM 41.3344 -83.4372 277° West 406 467 40,000  Level Cleveland Center
Thu 11:11:47 AM 41.3472 -83.5897 276° West 406 467 40,000  Level Cleveland Center
Thu 11:12:47 AM 41.3597 -83.7372 276° West 406 467 40,000  Level Cleveland Center
Thu 11:13:47 AM 41.3703 -83.8842 276° West 406 467 40,000 -1,188 Level Cleveland Center
Thu 11:16:09 AM 41.4000 -84.2278 277° West 394 453 36,000 -2,010 Descending Chicago Center
Thu 11:17:10 AM 41.4117 -84.3769 276° West 404 465 33,200 -2,732 Descending Chicago Center
Thu 11:18:12 AM 41.4244 -84.5344 276° West 426 490 30,400 -1,548 Descending Chicago Center
Thu 11:19:14 AM 41.4353 -84.6894 275° West 423 487 30,000 -194 Descending Chicago Center
Thu 11:20:16 AM 41.4486 -84.8772 275° West 424 488 30,000 -532 Level Chicago Center
Thu 11:21:18 AM 41.4600 -85.0367 275° West 430 495 28,900 -1,415 Descending Chicago Center
Thu 11:22:19 AM 41.4711 -85.1936 275° West 426 490 27,100 -1,854 Descending Chicago Center
Thu 11:23:21 AM 41.4800 -85.3472 274° West 414 476 25,100 -1,935 Descending Chicago Center
Thu 11:24:23 AM 41.4903 -85.4997 275° West 406 467 23,100 -1,984 Descending Chicago Center
Thu 11:25:25 AM 41.5003 -85.6478 275° West 399 459 21,000 -2,032 Descending Chicago Center
Thu 11:26:27 AM 41.5097 -85.7906 275° West 388 447 18,900 -2,081 Descending Chicago Center
Thu 11:27:29 AM 41.5186 -85.9250 275° West 371 427 16,700 -2,146 Descending Chicago Center
Thu 11:28:30 AM 41.5244 -86.0614 273° West 367 422 14,500 -2,341 Descending Chicago Center
Thu 11:29:32 AM 41.5233 -86.2186 270° West 351 404 11,900 -2,177 Descending Chicago Center
Thu 11:30:34 AM 41.5222 -86.3456 269° West 344 396 10,000 -919 Descending Chicago Center
Thu 11:31:36 AM 41.5217 -86.4714 270° West 340 391 10,000  Level Chicago Center
Thu 11:32:38 AM 41.5197 -86.5981 269° West 342 394 10,000  Level Chicago Center
Thu 11:33:40 AM 41.5208 -86.7189 271° West 341 392 10,000 -242 Level Chicago Center
Thu 11:34:42 AM 41.5208 -86.8583 270° West 310 357 9,500 -1,024 Descending Chicago Center
Thu 11:35:43 AM 41.5189 -86.9658 269° West 291 335 7,900 -1,463 Descending Chicago Center
Thu 11:36:45 AM 41.5161 -87.0706 268° West 285 328 6,500 -1,000 Descending Chicago Center
Thu 11:37:31 AM 41.5167 -87.1500 271° West 274 315 6,100 -780 Descending Chicago TRACON
Thu 11:38:25 AM 41.5167 -87.2500 270° West 274 315 5,200 -1,000 Descending Chicago TRACON
Thu 11:39:31 AM 41.5333 -87.3500 283° West 268 308 4,100 -767 Descending Chicago TRACON
Thu 11:39:51 AM 41.5397 -87.3883 283° West 271 312 4,100  Level Chicago Center
Thu 11:40:53 AM 41.5486 -87.4858 277° West 269 310 4,100  Level Chicago Center
Thu 11:41:55 AM 41.5581 -87.5844 277° West 269 310 4,100 -48 Level Chicago Center
Thu 11:42:57 AM 41.5717 -87.6811 281° West 273 314 4,000 -484 Descending Chicago Center
Thu 11:43:59 AM 41.6156 -87.7569 308° West 266 306 3,100 -651 Descending Chicago Center
Thu 11:44:20 AM 41.6333 -87.7833 312° West 238 274 3,100 -222 Level Chicago TRACON
Thu 11:45:20 AM 41.6833 -87.8167 334° Northwest 194 223 2,800 -474 Descending Chicago TRACON
Thu 11:46:14 AM 41.7333 -87.8167 360° North 187 215 2,200 -684 Descending Chicago TRACON
Thu 11:47:14 AM 41.7667 -87.7833 37° Northeast 125 144 1,500 -700 Descending Chicago TRACON
Thu 11:50:00 AM 41.7833 -87.7500 334° Northwest  Level FlightAware Approximate

Login

Don't have an account? Register now (free) for customized features, flight alerts, and more!